createdAt,value
2022-08-10T00:04:54.234Z,87.53
2022-08-10T00:09:57.317Z,87.11
2022-08-10T00:15:00.803Z,86.97
2022-08-10T00:20:08.743Z,85.00
2022-08-10T00:25:11.951Z,82.90
2022-08-10T00:30:14.801Z,81.38
2022-08-10T00:35:17.637Z,80.38
2022-08-10T00:40:37.216Z,79.99
2022-08-10T00:45:40.896Z,79.88
2022-08-10T00:50:43.800Z,79.78
2022-08-10T00:57:12.823Z,78.62
2022-08-10T01:01:11.003Z,78.83
2022-08-10T01:07:06.166Z,78.87
2022-08-10T01:12:38.517Z,78.03
2022-08-10T01:17:57.284Z,77.70
2022-08-10T01:23:29.081Z,76.97
2022-08-10T01:28:56.193Z,76.55
2022-08-10T01:34:04.110Z,75.64
2022-08-10T01:39:08.095Z,74.91
2022-08-10T01:44:20.018Z,74.00
2022-08-10T01:49:24.264Z,72.85
2022-08-10T01:54:28.028Z,71.63
2022-08-10T01:59:36.061Z,70.64
2022-08-10T02:04:40.568Z,70.24
2022-08-10T02:09:57.322Z,70.47
2022-08-10T02:15:05.282Z,70.82
2022-08-10T02:20:22.872Z,70.27
2022-08-10T02:25:41.951Z,69.00
2022-08-10T02:30:48.425Z,67.69
2022-08-10T02:35:55.317Z,67.30
2022-08-10T02:42:18.359Z,66.03
2022-08-10T02:46:30.394Z,64.40
2022-08-10T02:52:08.658Z,62.84
2022-08-10T02:57:25.284Z,61.84
2022-08-10T03:02:46.435Z,61.71
2022-08-10T03:07:54.955Z,62.72
2022-08-10T03:13:02.739Z,63.71
2022-08-10T03:18:06.299Z,64.36
2022-08-10T03:23:15.196Z,64.66
2022-08-10T03:28:20.676Z,65.81
2022-08-10T03:33:27.886Z,66.22
2022-08-10T03:38:30.783Z,66.73
2022-08-10T03:43:34.446Z,66.39
2022-08-10T03:48:49.047Z,65.90
2022-08-10T03:54:05.734Z,66.05
2022-08-10T03:59:12.880Z,65.27
2022-08-10T04:04:22.487Z,63.76
2022-08-10T04:09:53.491Z,63.13
2022-08-10T04:14:54.698Z,63.05
2022-08-10T04:19:58.522Z,63.80
2022-08-10T04:25:05.187Z,63.19
2022-08-10T04:30:08.991Z,61.25
2022-08-10T04:35:12.207Z,59.66
2022-08-10T04:40:28.424Z,58.33
2022-08-10T04:45:49.283Z,57.62
2022-08-10T04:50:54.844Z,58.67
2022-08-10T04:55:57.634Z,60.12
2022-08-10T05:01:00.477Z,60.86
2022-08-10T05:06:03.494Z,59.89
2022-08-10T05:11:06.334Z,58.23
2022-08-10T05:16:09.096Z,56.73
2022-08-10T05:21:52.121Z,55.11
2022-08-10T05:27:00.320Z,53.14
2022-08-10T05:32:09.463Z,52.95
2022-08-10T05:38:09.628Z,51.13
2022-08-10T05:42:35.932Z,53.05
2022-08-10T05:48:54.646Z,54.33
2022-08-10T05:53:59.403Z,54.36
2022-08-10T05:58:25.757Z,54.43
2022-08-10T06:03:34.946Z,54.99
2022-08-10T06:08:39.764Z,55.95
2022-08-10T06:14:13.100Z,56.08
2022-08-10T06:19:19.618Z,55.30
2022-08-10T06:24:25.327Z,54.04
2022-08-10T06:29:33.742Z,53.97
2022-08-10T06:34:40.142Z,53.85
2022-08-10T06:39:43.511Z,52.65
2022-08-10T06:44:56.345Z,53.29
2022-08-10T06:50:04.960Z,55.63
2022-08-10T06:55:16.634Z,57.33
2022-08-10T07:00:21.878Z,57.81
2022-08-10T07:05:27.001Z,56.92
2022-08-10T07:10:45.581Z,56.13
2022-08-10T07:15:59.517Z,55.86
2022-08-10T07:21:04.866Z,55.53
2022-08-10T07:26:10.226Z,55.44
2022-08-10T07:31:54.958Z,55.46
2022-08-10T07:36:40.045Z,54.35
2022-08-10T07:41:43.240Z,53.10
2022-08-10T07:46:47.996Z,52.46
2022-08-10T07:51:54.443Z,53.48
2022-08-10T07:57:02.509Z,52.41
2022-08-10T08:02:07.084Z,52.28
2022-08-10T08:07:09.861Z,52.65
2022-08-10T08:12:13.702Z,52.50
2022-08-10T08:17:17.243Z,51.44
2022-08-10T08:24:05.291Z,49.53
2022-08-10T08:27:47.901Z,49.21
2022-08-10T08:33:00.238Z,48.56
2022-08-10T08:38:32.361Z,48.86
2022-08-10T08:43:58.823Z,48.34
2022-08-10T08:49:09.530Z,48.79
2022-08-10T08:54:15.299Z,47.90
2022-08-10T08:59:51.541Z,47.93
2022-08-10T09:05:00.362Z,46.36
2022-08-10T09:10:27.762Z,45.36
2022-08-10T09:15:57.423Z,44.58
2022-08-10T09:21:55.071Z,44.74
2022-08-10T09:27:13.729Z,44.01
2022-08-10T09:36:16.275Z,43.06
2022-08-10T09:38:01.135Z,42.76
2022-08-10T09:43:25.190Z,42.82
2022-08-10T09:48:42.248Z,42.94
2022-08-10T09:53:54.602Z,43.12
2022-08-10T10:00:00.733Z,44.19
2022-08-10T10:05:16.726Z,43.75
2022-08-10T10:10:47.894Z,43.07
2022-08-10T10:16:03.944Z,42.67
2022-08-10T10:21:51.346Z,42.75
2022-08-10T10:27:24.244Z,42.65
2022-08-10T10:32:38.974Z,43.68
2022-08-10T10:38:01.275Z,44.35
2022-08-10T10:43:29.288Z,43.58
2022-08-10T10:48:53.670Z,42.64
2022-08-10T10:54:03.446Z,42.60
2022-08-10T10:59:56.230Z,42.85
2022-08-10T11:05:16.440Z,43.49
2022-08-10T11:10:33.405Z,43.57
2022-08-10T11:15:42.833Z,43.53
2022-08-10T11:21:16.940Z,44.04
2022-08-10T11:26:26.742Z,44.27
2022-08-10T11:31:36.249Z,44.46
2022-08-10T11:36:41.770Z,44.26
2022-08-10T11:42:08.884Z,44.13
2022-08-10T11:47:18.317Z,44.11
2022-08-10T11:52:29.510Z,44.51
2022-08-10T11:57:53.069Z,44.43
2022-08-10T12:03:02.530Z,44.49
2022-08-10T12:10:04.847Z,44.58
2022-08-10T12:14:04.287Z,44.86
2022-08-10T12:19:24.856Z,44.08
2022-08-10T12:24:46.986Z,44.78
2022-08-10T12:29:55.883Z,45.26
2022-08-10T12:35:22.074Z,45.69
2022-08-10T12:40:35.706Z,45.85
2022-08-10T12:45:52.036Z,45.78
2022-08-10T12:51:15.322Z,44.12
2022-08-10T12:56:30.037Z,44.80
2022-08-10T13:02:06.919Z,46.15
2022-08-10T13:06:59.017Z,46.40
2022-08-10T13:12:36.017Z,46.80
2022-08-10T13:17:46.853Z,45.88
2022-08-10T13:22:59.708Z,43.36
2022-08-10T13:28:37.854Z,42.73
2022-08-10T13:34:41.246Z,42.46
2022-08-10T13:38:59.193Z,43.91
2022-08-10T13:44:02.186Z,46.96
2022-08-10T13:49:06.309Z,48.52
2022-08-10T13:54:17.940Z,50.22
2022-08-10T13:59:22.415Z,51.14
2022-08-10T14:04:25.419Z,52.05
2022-08-10T14:09:31.838Z,53.20
2022-08-10T14:14:34.883Z,53.61
2022-08-10T14:19:43.752Z,54.71
2022-08-10T14:24:47.065Z,55.41
2022-08-10T14:29:55.464Z,56.53
2022-08-10T14:36:21.109Z,57.98
2022-08-10T14:40:26.053Z,58.61
2022-08-10T14:45:33.894Z,59.55
2022-08-10T14:50:55.609Z,60.41
2022-08-10T14:56:03.171Z,61.40
2022-08-10T15:01:07.460Z,61.82
2022-08-10T15:06:17.933Z,63.01
2022-08-10T15:12:12.337Z,63.56
2022-08-10T15:16:44.581Z,64.24
2022-08-10T15:21:47.527Z,64.58
2022-08-10T15:27:09.632Z,65.52
2022-08-10T15:32:37.407Z,66.01
2022-08-10T15:37:41.619Z,66.69
2022-08-10T15:42:58.385Z,67.69
2022-08-10T15:48:04.768Z,68.18
2022-08-10T15:53:17.077Z,68.78
2022-08-10T15:58:37.582Z,69.02
2022-08-10T16:03:54.680Z,69.89
2022-08-10T16:10:10.792Z,69.99
2022-08-10T16:14:36.646Z,69.89
2022-08-10T16:19:49.487Z,70.17
2022-08-10T16:24:52.473Z,70.57
2022-08-10T16:30:00.974Z,71.43
2022-08-10T16:35:09.845Z,71.48
2022-08-10T16:40:13.871Z,71.91
2022-08-10T16:45:25.003Z,72.83
2022-08-10T16:50:42.002Z,73.77
2022-08-10T16:55:50.969Z,74.39
2022-08-10T17:00:59.766Z,74.90
2022-08-10T17:06:10.844Z,75.58
2022-08-10T17:11:15.815Z,76.12
2022-08-10T17:16:18.636Z,76.83
2022-08-10T17:21:23.503Z,77.63
2022-08-10T17:26:37.011Z,77.94
2022-08-10T17:31:54.828Z,78.42
2022-08-10T17:37:02.729Z,79.14
2022-08-10T17:42:06.105Z,78.50
2022-08-10T17:47:11.281Z,78.83
2022-08-10T17:52:16.951Z,79.24
2022-08-10T17:57:21.564Z,79.23
2022-08-10T18:02:28.422Z,79.91
2022-08-10T18:07:35.803Z,80.28
2022-08-10T18:12:48.398Z,80.86
2022-08-10T18:17:59.079Z,81.55
2022-08-10T18:23:04.022Z,82.05
2022-08-10T18:28:12.133Z,82.48
2022-08-10T18:33:16.356Z,83.18
2022-08-10T18:38:19.734Z,83.82
2022-08-10T18:44:05.546Z,84.29
2022-08-10T18:48:57.031Z,85.18
2022-08-10T18:54:05.690Z,85.35
2022-08-10T18:59:39.239Z,86.14
2022-08-10T19:05:30.137Z,86.75
2022-08-10T19:11:01.528Z,86.99
2022-08-10T19:16:15.098Z,87.31
2022-08-10T19:21:40.237Z,87.71
2022-08-10T19:27:04.488Z,87.95
2022-08-10T19:32:18.678Z,88.00
2022-08-10T19:38:00.743Z,88.57
2022-08-10T19:44:00.680Z,88.59
2022-08-10T19:48:54.052Z,88.51
2022-08-10T19:54:02.986Z,88.83
2022-08-10T19:59:11.346Z,89.14
2022-08-10T20:04:20.398Z,88.98
2022-08-10T20:09:35.034Z,89.52
2022-08-10T20:14:53.342Z,89.78
2022-08-10T20:19:59.409Z,90.52
2022-08-10T20:25:14.010Z,90.55
2022-08-10T20:30:17.605Z,91.06
2022-08-10T20:35:49.128Z,91.31
2022-08-10T20:41:27.505Z,91.03
2022-08-10T20:46:34.507Z,91.31
2022-08-10T20:52:00.463Z,91.73
2022-08-10T20:57:54.829Z,92.16
2022-08-10T21:03:21.015Z,92.16
2022-08-10T21:08:49.324Z,92.48
2022-08-10T21:14:19.162Z,92.76
2022-08-10T21:19:55.596Z,93.30
2022-08-10T21:25:04.050Z,93.28
2022-08-10T21:30:16.633Z,93.58
2022-08-10T21:35:41.866Z,94.08
2022-08-10T21:41:18.142Z,93.93
2022-08-10T21:47:04.770Z,94.26
2022-08-10T21:52:36.940Z,94.39
2022-08-10T21:58:06.705Z,94.55
2022-08-10T22:03:39.411Z,94.82
2022-08-10T22:09:04.309Z,94.95
2022-08-10T22:14:33.773Z,95.23
2022-08-10T22:20:03.077Z,95.33
2022-08-10T22:25:52.075Z,95.57
2022-08-10T22:37:12.653Z,96.30
2022-08-10T22:42:57.968Z,96.84
2022-08-10T22:48:23.873Z,96.76
2022-08-10T22:53:56.493Z,96.43
2022-08-10T22:58:59.240Z,96.96
2022-08-10T23:04:08.972Z,96.42
2022-08-10T23:09:14.754Z,96.33
2022-08-10T23:14:18.962Z,96.47
2022-08-10T23:19:26.288Z,96.70
2022-08-10T23:24:39.125Z,96.46
2022-08-10T23:30:09.873Z,96.27
2022-08-10T23:36:31.736Z,95.58
2022-08-10T23:40:36.806Z,94.99
2022-08-10T23:45:53.756Z,93.84
2022-08-10T23:51:02.728Z,92.89
2022-08-10T23:56:09.788Z,91.07
